createdAt,value
2018-10-05T00:00:28.923Z,102490.17
2018-10-05T00:02:57.918Z,102498.09
2018-10-05T00:05:26.819Z,102498.23
2018-10-05T00:07:55.808Z,102497.83
2018-10-05T00:10:24.723Z,102496.20
2018-10-05T00:12:53.805Z,102484.16
2018-10-05T00:15:22.740Z,102498.33
2018-10-05T00:17:52.137Z,102488.59
2018-10-05T00:20:21.196Z,102492.03
2018-10-05T00:22:50.204Z,102484.39
2018-10-05T00:25:19.095Z,102484.49
2018-10-05T00:27:48.038Z,102484.59
2018-10-05T00:30:16.975Z,102481.80
2018-10-05T00:32:45.866Z,102492.80
2018-10-05T00:35:14.793Z,102490.27
2018-10-05T00:37:43.654Z,102484.59
2018-10-05T00:40:12.651Z,102486.54
2018-10-05T00:42:41.713Z,102485.31
2018-10-05T00:45:10.616Z,102476.59
2018-10-05T00:47:42.442Z,102477.02
2018-10-05T00:50:11.354Z,102481.51
2018-10-05T00:52:40.271Z,102477.76
2018-10-05T00:55:09.176Z,102475.73
2018-10-05T00:57:38.068Z,102474.84
2018-10-05T01:00:07.148Z,102474.53
2018-10-05T01:02:36.122Z,102478.80
2018-10-05T01:05:05.130Z,102471.88
2018-10-05T01:07:34.105Z,102472.42
2018-10-05T01:10:03.023Z,102466.45
2018-10-05T01:12:31.980Z,102472.10
2018-10-05T01:15:00.864Z,102470.87
2018-10-05T01:17:29.681Z,102480.58
2018-10-05T01:19:58.625Z,102482.34
2018-10-05T01:22:27.576Z,102481.39
2018-10-05T01:24:56.534Z,102480.36
2018-10-05T01:27:25.509Z,102478.05
2018-10-05T01:29:54.394Z,102470.50
2018-10-05T01:32:23.342Z,102469.43
2018-10-05T01:34:52.303Z,102470.91
2018-10-05T01:37:21.195Z,102470.98
2018-10-05T01:39:50.122Z,102471.11
2018-10-05T01:42:19.478Z,102472.00
2018-10-05T01:44:48.341Z,102472.81
2018-10-05T01:47:17.238Z,102472.24
2018-10-05T01:49:46.157Z,102477.80
2018-10-05T01:52:15.065Z,102479.02
2018-10-05T01:54:43.952Z,102479.95
2018-10-05T01:57:12.758Z,102475.00
2018-10-05T01:59:41.671Z,102481.78
2018-10-05T02:02:10.622Z,102478.72
2018-10-05T02:04:39.594Z,102477.77
2018-10-05T02:07:08.460Z,102476.28
2018-10-05T02:09:37.305Z,102474.01
2018-10-05T02:12:06.539Z,102478.56
2018-10-05T02:14:35.425Z,102475.27
2018-10-05T02:17:04.421Z,102471.06
2018-10-05T02:19:33.352Z,102475.88
2018-10-05T02:22:02.204Z,102478.75
2018-10-05T02:24:31.158Z,102484.41
2018-10-05T02:27:00.075Z,102486.09
2018-10-05T02:29:28.914Z,102484.47
2018-10-05T02:31:57.842Z,102479.88
2018-10-05T02:34:26.718Z,102488.36
2018-10-05T02:36:55.550Z,102484.16
2018-10-05T02:39:24.365Z,102486.93
2018-10-05T02:41:53.330Z,102481.27
2018-10-05T02:44:22.274Z,102482.98
2018-10-05T02:46:51.111Z,102490.28
2018-10-05T02:49:19.956Z,102490.50
2018-10-05T02:51:48.912Z,102488.48
2018-10-05T02:54:17.899Z,102492.40
2018-10-05T02:56:46.896Z,102500.59
2018-10-05T02:59:15.883Z,102505.23
2018-10-05T03:01:55.762Z,102506.91
2018-10-05T03:04:24.702Z,102506.38
2018-10-05T03:06:53.675Z,102509.57
2018-10-05T03:09:22.643Z,102503.09
2018-10-05T03:11:51.555Z,102506.80
2018-10-05T03:14:22.001Z,102502.81
2018-10-05T03:16:50.975Z,102506.34
2018-10-05T03:19:19.919Z,102504.23
2018-10-05T03:21:49.010Z,102508.63
2018-10-05T03:24:17.909Z,102509.26
2018-10-05T03:26:46.833Z,102513.84
2018-10-05T03:29:15.766Z,102508.50
2018-10-05T03:31:44.694Z,102506.31
2018-10-05T03:34:13.597Z,102509.64
2018-10-05T03:36:42.641Z,102513.18
2018-10-05T03:39:11.588Z,102522.60
2018-10-05T03:41:40.486Z,102510.30
2018-10-05T03:44:09.481Z,102515.91
2018-10-05T03:46:38.383Z,102510.54
2018-10-05T03:49:07.345Z,102512.48
2018-10-05T03:51:36.253Z,102507.10
2018-10-05T03:54:05.194Z,102508.81
2018-10-05T03:56:35.330Z,102505.42
2018-10-05T03:59:04.301Z,102512.05
2018-10-05T04:01:33.150Z,102511.39
2018-10-05T04:04:02.034Z,102516.63
2018-10-05T04:06:31.123Z,102517.63
2018-10-05T04:09:00.042Z,102520.31
2018-10-05T04:11:28.986Z,102522.31
2018-10-05T04:13:57.945Z,102519.61
2018-10-05T04:16:26.848Z,102515.48
2018-10-05T04:18:55.794Z,102520.64
2018-10-05T04:21:24.682Z,102518.64
2018-10-05T04:23:53.618Z,102518.37
2018-10-05T04:26:22.599Z,102521.77
2018-10-05T04:28:51.537Z,102520.97
2018-10-05T04:31:20.397Z,102529.62
2018-10-05T04:33:49.334Z,102531.33
2018-10-05T04:36:18.214Z,102529.30
2018-10-05T04:38:48.539Z,102530.04
2018-10-05T04:41:18.795Z,102533.12
2018-10-05T04:43:47.771Z,102530.79
2018-10-05T04:46:16.684Z,102541.30
2018-10-05T04:48:45.598Z,102544.27
2018-10-05T04:51:14.405Z,102547.75
2018-10-05T04:53:43.411Z,102550.24
2018-10-05T04:56:12.284Z,102552.48
2018-10-05T04:58:41.302Z,102558.09
2018-10-05T05:01:10.315Z,102557.23
2018-10-05T05:03:39.241Z,102562.00
2018-10-05T05:06:08.259Z,102558.66
2018-10-05T05:08:37.309Z,102561.23
2018-10-05T05:11:06.338Z,102565.61
2018-10-05T05:13:35.275Z,102567.23
2018-10-05T05:16:04.292Z,102568.59
2018-10-05T05:18:34.522Z,102572.28
2018-10-05T05:21:03.491Z,102574.73
2018-10-05T05:23:32.443Z,102573.55
2018-10-05T05:26:01.421Z,102579.37
2018-10-05T05:28:30.432Z,102580.72
2018-10-05T05:30:59.310Z,102589.13
2018-10-05T05:33:28.253Z,102589.30
2018-10-05T05:35:58.506Z,102597.45
2018-10-05T05:38:27.424Z,102599.06
2018-10-05T05:40:56.413Z,102600.70
2018-10-05T05:43:25.381Z,102599.37
2018-10-05T05:45:54.250Z,102602.66
2018-10-05T05:48:23.190Z,102602.51
2018-10-05T05:50:52.148Z,102599.76
2018-10-05T05:53:22.467Z,102609.08
2018-10-05T05:55:51.507Z,102618.39
2018-10-05T05:58:20.407Z,102617.68
2018-10-05T06:00:49.427Z,102612.91
2018-10-05T06:03:18.353Z,102605.55
2018-10-05T06:05:47.280Z,102616.52
2018-10-05T06:08:17.737Z,102608.92
2018-10-05T06:10:46.650Z,102614.20
2018-10-05T06:13:15.514Z,102616.10
2018-10-05T06:15:44.491Z,102622.57
2018-10-05T06:18:13.482Z,102618.95
2018-10-05T06:20:42.401Z,102624.62
2018-10-05T06:23:12.652Z,102625.52
2018-10-05T06:25:42.914Z,102627.94
2018-10-05T06:28:11.901Z,102617.66
2018-10-05T06:30:40.895Z,102630.00
2018-10-05T06:33:09.802Z,102627.67
2018-10-05T06:35:38.605Z,102632.42
2018-10-05T06:38:07.565Z,102635.97
2018-10-05T06:40:36.532Z,102630.31
2018-10-05T06:43:05.549Z,102639.16
2018-10-05T06:45:34.417Z,102637.29
2018-10-05T06:48:03.287Z,102635.41
2018-10-05T06:50:33.502Z,102639.33
2018-10-05T06:53:02.382Z,102644.33
2018-10-05T06:55:31.363Z,102642.65
2018-10-05T06:58:01.972Z,102639.50
2018-10-05T07:00:30.859Z,102645.22
2018-10-05T07:02:59.693Z,102637.72
2018-10-05T07:05:28.770Z,102638.29
2018-10-05T07:07:57.698Z,102635.61
2018-10-05T07:10:26.569Z,102638.61
2018-10-05T07:12:55.490Z,102639.84
2018-10-05T07:15:24.434Z,102638.80
2018-10-05T07:17:53.396Z,102637.05
2018-10-05T07:20:23.699Z,102640.55
2018-10-05T07:22:52.554Z,102641.64
2018-10-05T07:25:21.499Z,102638.93
2018-10-05T07:27:58.094Z,102641.05
2018-10-05T07:30:26.963Z,102638.49
2018-10-05T07:32:57.288Z,102643.99
2018-10-05T07:35:27.646Z,102645.03
2018-10-05T07:37:57.922Z,102643.59
2018-10-05T07:40:26.754Z,102642.43
2018-10-05T07:42:55.877Z,102644.27
2018-10-05T07:45:25.184Z,102650.52
2018-10-05T07:47:54.046Z,102649.86
2018-10-05T07:50:22.954Z,102652.36
2018-10-05T07:52:52.343Z,102658.48
2018-10-05T07:55:21.423Z,102656.80
2018-10-05T07:57:50.425Z,102652.52
2018-10-05T08:00:19.323Z,102646.92
2018-10-05T08:02:48.207Z,102648.36
2018-10-05T08:05:17.219Z,102644.72
2018-10-05T08:07:46.167Z,102649.78
2018-10-05T08:10:15.282Z,102642.36
2018-10-05T08:12:44.282Z,102651.16
2018-10-05T08:15:13.192Z,102649.36
2018-10-05T08:17:43.395Z,102640.97
2018-10-05T08:20:12.330Z,102635.88
2018-10-05T08:22:41.235Z,102638.39
2018-10-05T08:25:11.331Z,102630.29
2018-10-05T08:27:40.368Z,102639.88
2018-10-05T08:30:09.622Z,102626.77
2018-10-05T08:32:38.554Z,102634.63
2018-10-05T08:35:07.542Z,102634.79
2018-10-05T08:37:36.613Z,102634.66
2018-10-05T08:40:07.374Z,102633.16
2018-10-05T08:42:36.246Z,102640.59
2018-10-05T08:45:05.290Z,102637.45
2018-10-05T08:47:36.759Z,102643.48
2018-10-05T08:50:05.791Z,102636.76
2018-10-05T08:52:34.737Z,102645.71
2018-10-05T08:55:04.991Z,102636.69
2018-10-05T08:57:33.872Z,102633.48
2018-10-05T09:00:02.824Z,102641.23
2018-10-05T09:02:31.843Z,102634.59
2018-10-05T09:05:00.765Z,102635.94
2018-10-05T09:07:29.873Z,102632.02
2018-10-05T09:09:58.730Z,102632.15
2018-10-05T09:12:27.634Z,102634.87
2018-10-05T09:14:56.575Z,102635.41
2018-10-05T09:17:25.630Z,102637.45
2018-10-05T09:19:54.612Z,102631.02
2018-10-05T09:22:25.266Z,102628.28
2018-10-05T09:24:54.466Z,102631.08
2018-10-05T09:27:23.388Z,102632.93
2018-10-05T09:29:53.873Z,102633.56
2018-10-05T09:32:22.809Z,102630.49
2018-10-05T09:34:51.777Z,102628.70
2018-10-05T09:37:22.099Z,102627.22
2018-10-05T09:39:51.097Z,102624.38
2018-10-05T09:42:20.009Z,102618.53
2018-10-05T09:44:48.988Z,102618.28
2018-10-05T09:47:17.932Z,102620.72
2018-10-05T09:49:46.899Z,102621.73
2018-10-05T09:52:16.000Z,102618.00
2018-10-05T09:54:44.993Z,102620.86
2018-10-05T09:57:15.190Z,102613.05
2018-10-05T09:59:44.155Z,102608.62
2018-10-05T10:03:18.759Z,102601.78
2018-10-05T10:05:47.724Z,102601.00
2018-10-05T10:08:16.782Z,102597.79
2018-10-05T10:10:45.764Z,102594.41
2018-10-05T10:13:14.809Z,102589.55
2018-10-05T10:15:43.691Z,102583.27
2018-10-05T10:18:12.751Z,102588.06
2018-10-05T10:20:41.819Z,102585.53
2018-10-05T10:23:10.683Z,102574.42
2018-10-05T10:25:40.839Z,102584.81
2018-10-05T10:28:09.828Z,102584.56
2018-10-05T10:30:38.762Z,102581.16
2018-10-05T10:33:07.783Z,102578.53
2018-10-05T10:35:36.800Z,102575.91
2018-10-05T10:38:05.770Z,102575.45
2018-10-05T10:40:34.739Z,102568.45
2018-10-05T10:43:03.665Z,102571.20
2018-10-05T10:45:32.635Z,102570.64
2018-10-05T10:48:01.873Z,102567.72
2018-10-05T10:50:30.782Z,102569.14
2018-10-05T10:52:59.844Z,102563.88
2018-10-05T10:55:28.907Z,102561.63
2018-10-05T10:57:57.807Z,102561.01
2018-10-05T11:00:26.864Z,102562.70
2018-10-05T11:02:57.124Z,102547.09
2018-10-05T11:05:26.125Z,102548.65
2018-10-05T11:07:55.340Z,102551.42
2018-10-05T11:10:24.352Z,102554.94
2018-10-05T11:12:53.517Z,102548.69
2018-10-05T11:15:22.574Z,102545.23
2018-10-05T11:17:51.507Z,102551.41
2018-10-05T11:20:20.466Z,102551.92
2018-10-05T11:22:49.407Z,102542.80
2018-10-05T11:25:19.698Z,102540.64
2018-10-05T11:27:48.670Z,102541.97
2018-10-05T11:30:17.554Z,102540.55
2018-10-05T11:32:47.931Z,102543.04
2018-10-05T11:35:16.940Z,102536.39
2018-10-05T11:37:47.107Z,102541.01
2018-10-05T11:40:16.094Z,102534.88
2018-10-05T11:42:45.098Z,102531.54
2018-10-05T11:45:14.107Z,102537.80
2018-10-05T11:47:42.972Z,102540.77
2018-10-05T11:50:18.373Z,102527.95
2018-10-05T11:52:49.013Z,102534.28
2018-10-05T11:55:18.307Z,102529.54
2018-10-05T11:57:47.418Z,102534.72
2018-10-05T12:00:20.003Z,102525.17
2018-10-05T12:02:49.370Z,102528.09
2018-10-05T12:05:18.333Z,102518.98
2018-10-05T12:07:47.335Z,102513.36
2018-10-05T12:10:16.337Z,102517.06
2018-10-05T12:12:45.267Z,102515.85
2018-10-05T12:15:14.303Z,102509.68
2018-10-05T12:17:43.311Z,102521.33
2018-10-05T12:20:12.207Z,102525.52
2018-10-05T12:22:41.199Z,102517.69
2018-10-05T12:25:10.086Z,102515.67
2018-10-05T12:27:39.124Z,102511.43
2018-10-05T12:30:08.106Z,102510.53
2018-10-05T12:32:37.187Z,102511.81
2018-10-05T12:35:06.524Z,102513.44
2018-10-05T12:37:35.463Z,102505.95
2018-10-05T12:40:04.374Z,102508.75
2018-10-05T12:42:33.518Z,102503.58
2018-10-05T12:45:02.425Z,102505.03
2018-10-05T12:47:31.502Z,102495.61
2018-10-05T12:50:01.927Z,102495.61
2018-10-05T12:52:30.783Z,102487.69
2018-10-05T12:54:59.678Z,102493.63
2018-10-05T12:57:28.931Z,102490.10
2018-10-05T12:59:57.848Z,102483.45
2018-10-05T13:02:26.759Z,102486.47
2018-10-05T13:04:55.789Z,102486.33
2018-10-05T13:07:24.792Z,102487.94
2018-10-05T13:09:55.087Z,102480.64
2018-10-05T13:12:24.332Z,102478.32
2018-10-05T13:14:54.297Z,102477.11
2018-10-05T13:17:23.351Z,102475.78
2018-10-05T13:19:52.335Z,102468.60
2018-10-05T13:22:21.313Z,102465.66
2018-10-05T13:24:50.354Z,102472.14
2018-10-05T13:27:19.291Z,102461.31
2018-10-05T13:29:48.174Z,102468.68
2018-10-05T13:32:18.566Z,102466.88
2018-10-05T13:34:47.561Z,102467.08
2018-10-05T13:37:16.536Z,102464.39
2018-10-05T13:39:46.822Z,102466.30
2018-10-05T13:42:15.748Z,102461.88
2018-10-05T13:44:44.647Z,102461.39
2018-10-05T13:47:13.671Z,102462.12
2018-10-05T13:49:42.626Z,102456.53
2018-10-05T13:52:11.554Z,102454.92
2018-10-05T13:54:41.717Z,102460.92
2018-10-05T13:57:10.571Z,102451.47
2018-10-05T13:59:39.495Z,102457.03
2018-10-05T14:02:09.377Z,102454.17
2018-10-05T14:04:38.290Z,102460.56
2018-10-05T14:07:07.594Z,102456.75
2018-10-05T14:09:36.485Z,102456.16
2018-10-05T14:12:05.607Z,102454.24
2018-10-05T14:14:34.584Z,102452.40
2018-10-05T14:17:04.048Z,102450.45
2018-10-05T14:19:34.129Z,102462.83
2018-10-05T14:22:03.174Z,102449.26
2018-10-05T14:24:32.107Z,102447.53
2018-10-05T14:27:01.015Z,102446.81
2018-10-05T14:29:31.229Z,102452.28
2018-10-05T14:32:00.188Z,102445.56
2018-10-05T14:34:29.177Z,102452.97
2018-10-05T14:36:58.217Z,102451.70
2018-10-05T14:39:27.302Z,102451.66
2018-10-05T14:41:56.335Z,102446.92
2018-10-05T14:44:25.290Z,102445.05
2018-10-05T14:46:55.185Z,102452.50
2018-10-05T14:49:24.232Z,102449.88
2018-10-05T14:51:53.151Z,102451.58
2018-10-05T14:54:22.142Z,102451.11
2018-10-05T14:56:51.093Z,102450.20
2018-10-05T14:59:20.210Z,102448.74
2018-10-05T15:01:49.092Z,102445.88
2018-10-05T15:04:18.040Z,102446.47
2018-10-05T15:06:47.823Z,102449.03
2018-10-05T15:09:17.518Z,102451.08
2018-10-05T15:11:46.422Z,102454.27
2018-10-05T15:14:16.487Z,102454.01
2018-10-05T15:16:47.458Z,102453.34
2018-10-05T15:19:17.646Z,102455.25
2018-10-05T15:21:47.938Z,102454.28
2018-10-05T15:24:16.775Z,102456.84
2018-10-05T15:26:45.739Z,102452.39
2018-10-05T15:29:15.989Z,102446.63
2018-10-05T15:31:44.932Z,102449.16
2018-10-05T15:34:15.964Z,102446.92
2018-10-05T15:36:46.724Z,102452.10
2018-10-05T15:39:15.676Z,102454.28
2018-10-05T15:41:45.660Z,102460.25
2018-10-05T15:44:14.655Z,102450.49
2018-10-05T15:47:02.086Z,102452.45
2018-10-05T15:49:31.995Z,102448.86
2018-10-05T15:52:01.364Z,102458.61
2018-10-05T15:54:32.398Z,102455.48
2018-10-05T15:57:01.369Z,102461.98
2018-10-05T15:59:31.003Z,102461.69
2018-10-05T16:02:00.011Z,102465.66
2018-10-05T16:04:29.453Z,102471.02
2018-10-05T16:06:58.433Z,102466.64
2018-10-05T16:09:29.747Z,102472.80
2018-10-05T16:11:58.743Z,102460.84
2018-10-05T16:14:27.930Z,102474.44
2018-10-05T16:16:58.852Z,102473.61
2018-10-05T16:19:28.382Z,102470.68
2018-10-05T16:21:57.379Z,102469.77
2018-10-05T16:24:30.635Z,102475.67
2018-10-05T16:26:59.578Z,102480.55
2018-10-05T16:29:29.871Z,102483.63
2018-10-05T16:31:58.835Z,102479.87
2018-10-05T16:34:27.791Z,102477.23
2018-10-05T16:36:58.779Z,102480.03
2018-10-05T16:39:27.626Z,102477.69
2018-10-05T16:41:57.346Z,102473.58
2018-10-05T16:44:28.585Z,102472.62
2018-10-05T16:46:57.485Z,102476.09
2018-10-05T16:49:27.666Z,102476.76
2018-10-05T16:51:56.623Z,102485.02
2018-10-05T16:54:25.575Z,102486.33
2018-10-05T16:56:54.498Z,102487.52
2018-10-05T16:59:23.443Z,102481.43
2018-10-05T17:01:52.534Z,102474.67
2018-10-05T17:04:22.839Z,102478.61
2018-10-05T17:06:51.767Z,102480.31
2018-10-05T17:09:20.859Z,102481.81
2018-10-05T17:11:51.363Z,102479.73
2018-10-05T17:14:21.584Z,102486.95
2018-10-05T17:16:50.592Z,102488.38
2018-10-05T17:19:21.316Z,102488.17
2018-10-05T17:21:50.172Z,102480.58
2018-10-05T17:24:20.324Z,102482.55
2018-10-05T17:26:50.154Z,102478.03
2018-10-05T17:29:21.353Z,102481.62
2018-10-05T17:31:50.790Z,102482.08
2018-10-05T17:34:19.747Z,102479.58
2018-10-05T17:36:50.099Z,102475.52
2018-10-05T17:39:19.047Z,102474.70
2018-10-05T17:41:49.318Z,102472.81
2018-10-05T17:44:21.832Z,102481.56
2018-10-05T17:46:50.804Z,102479.48
2018-10-05T17:49:20.762Z,102480.53
2018-10-05T17:51:51.055Z,102482.47
2018-10-05T17:54:19.959Z,102481.27
